Terminal Aerodrome Forecast
Issued by NWS Los Angeles, CA

Home | Current Version | Previous Version | Text Only | Print | Product List | Glossary On
Versions: 1 2 3 4 5 6 7 8 9 10 11 12 13 14 15 16 17 18 19 20 21 22 23 24 25 26 27 28 29 30 31 32 33 34 35 36
000
FTUS46 KLOX 251601 AAD
TAFSMX
TAF AMD
KSMX 251601Z 2516/2612 VRB03KT 1SM BR OVC002
     FM251700 VRB03KT 2SM BR BKN005
     FM251730 VRB05KT 6SM HZ SCT007
     FM251900 29010KT P6SM SKC
     FM260300 VRB05KT 6SM BR BKN003
     FM260800 VRB05KT 1/4SM FG VV001=

USA.gov is the U.S. government's official web portal to all federal, state and local government web resources and services.